KOLM

Olympia Regional Airport

Olympia, Washington, USA
KOLM 190151Z 1902/1924 36006KT 3SM RA BR FEW004 SCT011 OVC035 FM190500 20014KT P6SM -RA BKN025 OVC040 FM191200 20010KT 5SM BR OVC020 FM191800 22009KT P6SM BKN025
Issued Valid From Valid To
Jan-19 @ 01:51 UTC
(25 minutes ago)
Jan-19 @ 02:00 UTC
(16 minutes ago)
Jan-20 @ 00:00 UTC
(in 22 hours)
Jan-19 @ 02:00 to Jan-19 @ 05:00
KOLM 190151Z 1902/1924 36006KT 3SM RA BR FEW004 SCT011 OVC035
Wind Visibility Clouds Conditions
360° at 6 knots 3 miles
  • Few at 400' AGL
  • Scattered at 1,100' AGL
  • Overcast at 3,500' AGL
  • Rain
  • Mist
From Jan-19 @ 05:00 to Jan-19 @ 12:00
FM190500 20014KT P6SM -RA BKN025 OVC040
Wind Visibility Clouds Conditions
200° at 14 knots Greater than 6 miles
  • Broken at 2,500' AGL
  • Overcast at 4,000' AGL
  • Light Rain
From Jan-19 @ 12:00 to Jan-19 @ 18:00
FM191200 20010KT 5SM BR OVC020
Wind Visibility Clouds Conditions
200° at 10 knots 5 miles
  • Overcast at 2,000' AGL
  • Mist
From Jan-19 @ 18:00 to Jan-20 @ 00:00
FM191800 22009KT P6SM BKN025
Wind Visibility Clouds
220° at 9 knots Greater than 6 miles
  • Broken at 2,500' AGL
KOLM 190151Z 1902/1924 36006KT 3SM RA BR FEW004 SCT011 OVC035 FM190500 20014KT P6SM -RA BKN025 OVC040 FM191200 20010KT 5SM BR OVC020 FM191800 22009KT P6SM BKN025
Issued Jan-19 @ 01:51 UTC
(25 minutes ago)
Valid From Jan-19 @ 02:00 UTC
(16 minutes ago)
Valid To Jan-20 @ 00:00 UTC
(in 22 hours)
Jan-19 @ 02:00 - Jan-19 @ 05:00
Wind Visibility
360° at 6 knots 3 miles
Clouds
  • Few at 400' AGL
  • Scattered at 1,100' AGL
  • Overcast at 3,500' AGL
Conditions
  • Rain
  • Mist
From Jan-19 @ 05:00 - Jan-19 @ 12:00
Wind Visibility
200° at 14 knots Greater than 6 miles
Clouds
  • Broken at 2,500' AGL
  • Overcast at 4,000' AGL
Conditions
  • Light Rain
From Jan-19 @ 12:00 - Jan-19 @ 18:00
Wind Visibility
200° at 10 knots 5 miles
Clouds
  • Overcast at 2,000' AGL
Conditions
  • Mist
From Jan-19 @ 18:00 - Jan-20 @ 00:00
Wind Visibility
220° at 9 knots Greater than 6 miles
Clouds
  • Broken at 2,500' AGL